createdAt,value
2023-02-21T00:02:03.579Z,98663.66
2023-02-21T00:04:49.046Z,98636.09
2023-02-21T00:07:34.381Z,98650.63
2023-02-21T00:10:20.912Z,98636.84
2023-02-21T00:13:08.418Z,98648.50
2023-02-21T00:15:53.858Z,98640.97
2023-02-21T00:18:39.884Z,98642.75
2023-02-21T00:21:25.687Z,98647.78
2023-02-21T00:24:10.856Z,98630.19
2023-02-21T00:26:56.136Z,98655.25
2023-02-21T00:29:41.560Z,98617.13
2023-02-21T00:32:30.308Z,98663.47
2023-02-21T00:35:17.053Z,98636.63
2023-02-21T00:38:04.576Z,98643.25
2023-02-21T00:40:50.261Z,98660.31
2023-02-21T00:43:36.867Z,98644.03
2023-02-21T00:46:22.240Z,98649.59
2023-02-21T00:49:07.421Z,98639.69
2023-02-21T00:51:52.701Z,98643.38
2023-02-21T00:54:38.848Z,98646.03
2023-02-21T00:57:26.580Z,98625.44
2023-02-21T01:00:12.199Z,98608.16
2023-02-21T01:03:00.164Z,98650.59
2023-02-21T01:05:45.532Z,98634.16
2023-02-21T01:08:31.000Z,98617.03
2023-02-21T01:11:17.009Z,98624.41
2023-02-21T01:14:05.441Z,98621.13
2023-02-21T01:16:51.728Z,98629.25
2023-02-21T01:19:37.763Z,98618.66
2023-02-21T01:22:25.834Z,98614.97
2023-02-21T01:25:13.614Z,98560.50
2023-02-21T01:28:01.850Z,98605.72
2023-02-21T01:30:51.105Z,98587.13
2023-02-21T01:33:36.371Z,98605.28
2023-02-21T01:36:24.917Z,98609.25
2023-02-21T01:39:10.294Z,98573.53
2023-02-21T01:41:57.078Z,98592.25
2023-02-21T01:44:59.687Z,98603.00
2023-02-21T01:47:45.879Z,98584.38
2023-02-21T01:50:43.782Z,98604.00
2023-02-21T01:53:34.069Z,98578.56
2023-02-21T01:56:20.579Z,98586.41
2023-02-21T01:59:09.778Z,98599.22
2023-02-21T02:02:40.470Z,98590.97
2023-02-21T02:05:31.307Z,98610.69
2023-02-21T02:08:16.867Z,98583.31
2023-02-21T02:11:05.377Z,98570.00
2023-02-21T02:14:10.540Z,98586.75
2023-02-21T02:16:47.217Z,98598.53
2023-02-21T02:19:37.545Z,98598.31
2023-02-21T02:22:32.601Z,98601.25
2023-02-21T02:25:16.296Z,98588.59
2023-02-21T02:27:54.256Z,98594.16
2023-02-21T02:30:41.101Z,98600.00
2023-02-21T02:33:37.491Z,98605.47
2023-02-21T02:36:28.817Z,98599.84
2023-02-21T02:39:27.593Z,98595.34
2023-02-21T02:41:58.852Z,98596.44
2023-02-21T02:44:37.868Z,98583.72
2023-02-21T02:47:07.888Z,98568.63
2023-02-21T02:49:39.795Z,98594.75
2023-02-21T02:52:10.150Z,98576.75
2023-02-21T02:54:37.537Z,98598.03
2023-02-21T02:57:10.682Z,98596.00
2023-02-21T02:59:46.625Z,98598.94
2023-02-21T03:02:42.040Z,98599.69
2023-02-21T03:05:42.053Z,98595.06
2023-02-21T03:08:25.862Z,98570.47
2023-02-21T03:11:00.886Z,98585.63
2023-02-21T03:13:44.801Z,98598.44
2023-02-21T03:16:24.642Z,98596.88
2023-02-21T03:18:58.697Z,98597.22
2023-02-21T03:21:32.281Z,98593.25
2023-02-21T03:24:03.081Z,98602.50
2023-02-21T03:26:35.171Z,98584.66
2023-02-21T03:29:18.287Z,98596.28
2023-02-21T03:31:49.976Z,98514.91
2023-02-21T03:34:17.387Z,98615.66
2023-02-21T03:36:45.236Z,98599.81
2023-02-21T03:39:13.888Z,98590.72
2023-02-21T03:41:41.186Z,98588.66
2023-02-21T03:44:07.929Z,98605.69
2023-02-21T03:46:35.189Z,98592.66
2023-02-21T03:49:03.468Z,98561.09
2023-02-21T03:51:30.129Z,98591.19
2023-02-21T03:53:58.462Z,98563.56
2023-02-21T03:56:41.909Z,98603.69
2023-02-21T03:59:26.868Z,98608.38
2023-02-21T04:01:54.318Z,98594.19
2023-02-21T04:04:22.002Z,98586.53
2023-02-21T04:06:57.815Z,98589.25
2023-02-21T04:09:26.588Z,98604.53
2023-02-21T04:11:53.574Z,98603.91
2023-02-21T04:14:20.825Z,98592.63
2023-02-21T04:16:48.316Z,98547.53
2023-02-21T04:19:15.186Z,98578.50
2023-02-21T04:21:41.839Z,98513.16
2023-02-21T04:24:09.703Z,98598.03
2023-02-21T04:26:36.386Z,98498.88
2023-02-21T04:29:04.821Z,98551.13
2023-02-21T04:31:32.709Z,98594.94
2023-02-21T04:34:11.758Z,98596.97
2023-02-21T04:36:42.101Z,98564.72
2023-02-21T04:39:09.014Z,98554.72
2023-02-21T04:41:35.916Z,98583.63
2023-02-21T04:44:03.452Z,98591.06
2023-02-21T04:46:33.223Z,98569.28
2023-02-21T04:49:00.005Z,98597.72
2023-02-21T04:51:30.092Z,98577.16
2023-02-21T04:53:58.064Z,98571.28
2023-02-21T04:56:27.888Z,98599.75
2023-02-21T04:58:57.373Z,98595.81
2023-02-21T05:01:29.444Z,98591.19
2023-02-21T05:03:56.118Z,98583.63
2023-02-21T05:06:25.713Z,98572.94
2023-02-21T05:08:53.029Z,98588.41
2023-02-21T05:11:21.468Z,98593.16
2023-02-21T05:13:48.825Z,98593.31
2023-02-21T05:16:16.025Z,98575.88
2023-02-21T05:18:43.708Z,98587.41
2023-02-21T05:21:10.815Z,98573.72
2023-02-21T05:23:40.930Z,98596.28
2023-02-21T05:26:12.543Z,98534.44
2023-02-21T05:28:40.814Z,98559.44
2023-02-21T05:31:08.391Z,98521.41
2023-02-21T05:33:35.034Z,98584.59
2023-02-21T05:36:01.994Z,98584.75
2023-02-21T05:38:29.379Z,98591.31
2023-02-21T05:40:56.009Z,98588.09
2023-02-21T05:43:22.847Z,98592.38
2023-02-21T05:45:49.559Z,98536.31
2023-02-21T05:48:16.210Z,98590.47
2023-02-21T05:50:45.207Z,98554.94
2023-02-21T05:53:12.000Z,98569.22
2023-02-21T05:55:40.731Z,98585.84
2023-02-21T05:58:07.298Z,98591.59
2023-02-21T06:00:34.661Z,98605.94
2023-02-21T06:03:04.506Z,98604.56
2023-02-21T06:05:31.904Z,98533.91
2023-02-21T06:07:59.481Z,98584.97
2023-02-21T06:10:26.283Z,98582.88
2023-02-21T06:12:53.043Z,98542.34
2023-02-21T06:15:20.194Z,98594.13
2023-02-21T06:17:46.908Z,98575.47
2023-02-21T06:20:17.603Z,98566.72
2023-02-21T06:22:45.531Z,98590.09
2023-02-21T06:25:13.355Z,98568.59
2023-02-21T06:27:40.423Z,98564.81
2023-02-21T06:30:07.874Z,98602.53
2023-02-21T06:32:35.176Z,98573.13
2023-02-21T06:35:02.816Z,98518.78
2023-02-21T06:37:30.210Z,98587.59
2023-02-21T06:39:57.102Z,98601.53
2023-02-21T06:42:23.705Z,98595.69
2023-02-21T06:44:50.892Z,98569.53
2023-02-21T06:47:19.299Z,98598.69
2023-02-21T06:49:46.097Z,98573.50
2023-02-21T06:52:16.468Z,98600.81
2023-02-21T06:54:43.213Z,98559.38
2023-02-21T06:57:10.106Z,98522.03
2023-02-21T06:59:36.865Z,98571.38
2023-02-21T07:02:07.229Z,98574.34
2023-02-21T07:04:33.843Z,98573.66
2023-02-21T07:07:00.451Z,98589.78
2023-02-21T07:09:27.220Z,98560.53
2023-02-21T07:11:54.171Z,98546.72
2023-02-21T07:14:21.023Z,98565.13
2023-02-21T07:16:49.779Z,98508.69
2023-02-21T07:19:21.963Z,98573.97
2023-02-21T07:21:48.920Z,98590.75
2023-02-21T07:24:18.204Z,98580.13
2023-02-21T07:26:44.836Z,98596.03
2023-02-21T07:29:11.645Z,98550.25
2023-02-21T07:31:38.711Z,98534.81
2023-02-21T07:34:05.780Z,98492.50
2023-02-21T07:36:32.584Z,98518.25
2023-02-21T07:38:59.183Z,98586.50
2023-02-21T07:41:25.853Z,98558.81
2023-02-21T07:43:53.518Z,98487.72
2023-02-21T07:46:21.124Z,98593.59
2023-02-21T07:48:48.719Z,98601.44
2023-02-21T07:51:15.755Z,98590.50
2023-02-21T07:53:42.864Z,98555.25
2023-02-21T07:56:09.764Z,98590.19
2023-02-21T07:58:38.017Z,98566.63
2023-02-21T08:01:08.110Z,98593.56
2023-02-21T08:03:34.701Z,98567.31
2023-02-21T08:06:02.478Z,98580.50
2023-02-21T08:08:29.258Z,98545.75
2023-02-21T08:10:56.967Z,98562.75
2023-02-21T08:13:26.161Z,98561.25
2023-02-21T08:15:53.382Z,98525.63
2023-02-21T08:18:24.394Z,98559.28
2023-02-21T08:20:52.375Z,98564.06
2023-02-21T08:23:19.976Z,98558.47
2023-02-21T08:25:47.703Z,98560.00
2023-02-21T08:28:16.693Z,98528.75
2023-02-21T08:30:45.512Z,98561.06
2023-02-21T08:33:12.391Z,98547.72
2023-02-21T08:35:38.955Z,98548.16
2023-02-21T08:38:05.866Z,98546.41
2023-02-21T08:40:32.938Z,98528.16
2023-02-21T08:43:01.335Z,98558.47
2023-02-21T08:45:29.914Z,98549.69
2023-02-21T08:47:57.867Z,98550.19
2023-02-21T08:50:28.470Z,98524.75
2023-02-21T08:52:58.436Z,98507.44
2023-02-21T08:55:25.668Z,98536.50
2023-02-21T08:57:55.237Z,98549.34
2023-02-21T09:00:24.809Z,98532.09
2023-02-21T09:02:52.628Z,98542.38
2023-02-21T09:05:25.222Z,98539.59
2023-02-21T09:07:55.358Z,98454.94
2023-02-21T09:10:22.961Z,98530.22
2023-02-21T09:12:50.541Z,98471.31
2023-02-21T09:15:18.270Z,98530.53
2023-02-21T09:17:46.152Z,98495.34
2023-02-21T09:20:18.518Z,98484.16
2023-02-21T09:22:46.034Z,98515.22
2023-02-21T09:25:14.462Z,98491.72
2023-02-21T09:27:41.228Z,98514.84
2023-02-21T09:30:14.619Z,98525.50
2023-02-21T09:32:42.061Z,98520.09
2023-02-21T09:35:10.944Z,98502.84
2023-02-21T09:37:39.527Z,98522.97
2023-02-21T09:40:18.883Z,98515.59
2023-02-21T09:42:49.892Z,98491.84
2023-02-21T09:45:17.549Z,98488.66
2023-02-21T09:47:49.420Z,98506.91
2023-02-21T09:50:18.785Z,98460.69
2023-02-21T09:52:47.641Z,98508.56
2023-02-21T09:55:30.570Z,98520.09
2023-02-21T09:57:58.147Z,98525.47
2023-02-21T10:00:46.771Z,98415.97
2023-02-21T10:03:50.190Z,98515.94
2023-02-21T10:06:30.324Z,98507.41
2023-02-21T10:09:09.296Z,98505.34
2023-02-21T10:12:00.634Z,98511.56
2023-02-21T10:14:56.700Z,98497.25
2023-02-21T10:17:59.900Z,98493.34
2023-02-21T10:20:33.338Z,98493.19
2023-02-21T10:23:02.682Z,98484.06
2023-02-21T10:25:32.755Z,98485.72
2023-02-21T10:28:00.457Z,98490.00
2023-02-21T10:30:36.876Z,98492.56
2023-02-21T10:33:08.057Z,98458.09
2023-02-21T10:35:37.294Z,98436.72
2023-02-21T10:38:10.352Z,98463.06
2023-02-21T10:40:44.263Z,98468.13
2023-02-21T10:43:31.718Z,98474.09
2023-02-21T10:46:10.673Z,98489.94
2023-02-21T10:48:41.180Z,98450.50
2023-02-21T10:51:30.458Z,98452.53
2023-02-21T10:54:19.760Z,98423.31
2023-02-21T10:56:48.661Z,98421.50
2023-02-21T10:59:25.937Z,98473.88
2023-02-21T11:01:54.136Z,98468.16
2023-02-21T11:04:20.668Z,98460.38
2023-02-21T11:06:55.965Z,98428.97
2023-02-21T11:09:37.396Z,98455.88
2023-02-21T11:12:27.243Z,98459.50
2023-02-21T11:14:53.814Z,98451.47
2023-02-21T11:17:25.155Z,98452.53
2023-02-21T11:19:56.656Z,98445.56
2023-02-21T11:22:26.751Z,98446.72
2023-02-21T11:25:09.202Z,98434.41
2023-02-21T11:27:37.376Z,98442.16
2023-02-21T11:30:19.562Z,98418.13
2023-02-21T11:32:54.162Z,98379.59
2023-02-21T11:35:24.742Z,98428.81
2023-02-21T11:37:57.085Z,98372.53
2023-02-21T11:40:33.081Z,98414.72
2023-02-21T11:43:20.734Z,98416.41
2023-02-21T11:46:03.061Z,98404.56
2023-02-21T11:48:35.115Z,98368.13
2023-02-21T11:51:18.229Z,98399.91
2023-02-21T11:53:45.153Z,98348.59
2023-02-21T11:56:22.639Z,98393.25
2023-02-21T11:58:56.895Z,98394.84
2023-02-21T12:01:44.332Z,98385.41
2023-02-21T12:04:35.045Z,98373.00
2023-02-21T12:07:06.221Z,98381.41
2023-02-21T12:09:53.265Z,98350.19
2023-02-21T12:12:41.988Z,98383.75
2023-02-21T12:15:19.643Z,98370.16
2023-02-21T12:18:00.164Z,98361.22
2023-02-21T12:20:51.709Z,98369.56
2023-02-21T12:23:44.067Z,98368.66
2023-02-21T12:26:29.968Z,98366.69
2023-02-21T12:29:03.383Z,98358.13
2023-02-21T12:32:08.448Z,98327.56
2023-02-21T12:35:15.104Z,98311.59
2023-02-21T12:37:55.673Z,98338.59
2023-02-21T12:41:03.999Z,98345.75
2023-02-21T12:43:42.264Z,98339.13
2023-02-21T12:46:31.245Z,98329.38
2023-02-21T12:49:12.323Z,98310.28
2023-02-21T12:51:44.744Z,98313.28
2023-02-21T12:54:19.020Z,98302.38
2023-02-21T12:56:49.667Z,98318.13
2023-02-21T12:59:33.548Z,98298.38
2023-02-21T13:02:11.595Z,98307.94
2023-02-21T13:04:47.552Z,98290.31
2023-02-21T13:07:25.696Z,98292.25
2023-02-21T13:10:20.994Z,98226.63
2023-02-21T13:13:02.185Z,98292.69
2023-02-21T13:15:34.122Z,98282.75
2023-02-21T13:18:19.618Z,98283.88
2023-02-21T13:21:00.334Z,98274.25
2023-02-21T13:23:51.726Z,98281.47
2023-02-21T13:27:16.174Z,98273.25
2023-02-21T13:29:43.520Z,98236.47
2023-02-21T13:32:17.422Z,98265.41
2023-02-21T13:34:49.485Z,98251.13
2023-02-21T13:37:25.499Z,98258.94
2023-02-21T13:40:02.225Z,98264.34
2023-02-21T13:42:31.151Z,98237.25
2023-02-21T13:45:12.924Z,98254.78
2023-02-21T13:48:02.144Z,98248.97
2023-02-21T13:50:38.553Z,98238.88
2023-02-21T13:53:16.237Z,98235.47
2023-02-21T13:56:08.013Z,98238.78
2023-02-21T13:58:41.130Z,98239.88
2023-02-21T14:01:52.927Z,98165.38
2023-02-21T14:04:55.954Z,98228.38
2023-02-21T14:07:42.567Z,98212.97
2023-02-21T14:10:26.573Z,98229.19
2023-02-21T14:13:04.883Z,98217.94
2023-02-21T14:15:46.264Z,98166.00
2023-02-21T14:18:22.707Z,98224.06
2023-02-21T14:20:52.863Z,98174.59
2023-02-21T14:23:22.243Z,98215.66
2023-02-21T14:26:02.325Z,98222.38
2023-02-21T14:29:01.047Z,98223.25
2023-02-21T14:31:54.717Z,98219.41
2023-02-21T14:34:26.958Z,98182.38
2023-02-21T14:36:57.528Z,98141.56
2023-02-21T14:39:32.001Z,98138.59
2023-02-21T14:42:23.581Z,98211.47
2023-02-21T14:45:07.900Z,98146.53
2023-02-21T14:47:57.074Z,98173.00
2023-02-21T14:50:35.064Z,98161.56
2023-02-21T14:53:45.338Z,98202.69
2023-02-21T14:56:42.839Z,98168.88
2023-02-21T14:59:34.049Z,98191.84
2023-02-21T15:02:41.542Z,98198.31
2023-02-21T15:05:36.463Z,98189.72
2023-02-21T15:08:10.548Z,98194.06
2023-02-21T15:10:44.032Z,98188.47
2023-02-21T15:13:29.262Z,98187.47
2023-02-21T15:16:05.077Z,98160.13
2023-02-21T15:18:57.696Z,98141.56
2023-02-21T15:21:25.471Z,98140.38
2023-02-21T15:24:09.022Z,98180.63
2023-02-21T15:26:35.695Z,98156.22
2023-02-21T15:29:12.795Z,98174.97
2023-02-21T15:31:44.171Z,98141.31
2023-02-21T15:34:23.052Z,98095.56
2023-02-21T15:36:58.989Z,98105.00
2023-02-21T15:39:36.032Z,98126.38
2023-02-21T15:42:07.557Z,98130.78
2023-02-21T15:45:07.138Z,98177.97
2023-02-21T15:47:37.840Z,98158.06
2023-02-21T15:50:24.092Z,98138.06
2023-02-21T15:52:54.054Z,98170.66
2023-02-21T15:55:30.256Z,98100.41
2023-02-21T15:58:03.772Z,98143.19
2023-02-21T16:00:41.051Z,98179.78
2023-02-21T16:03:31.892Z,98179.88
2023-02-21T16:06:32.262Z,98175.50
2023-02-21T16:09:25.790Z,98140.47
2023-02-21T16:12:30.350Z,98144.53
2023-02-21T16:15:22.798Z,98130.09
2023-02-21T16:17:56.744Z,98161.81
2023-02-21T16:20:30.135Z,98159.00
2023-02-21T16:23:28.766Z,98157.28
2023-02-21T16:26:09.677Z,98155.09
2023-02-21T16:28:40.549Z,98157.69
2023-02-21T16:31:45.289Z,98100.56
2023-02-21T16:34:13.454Z,98142.00
2023-02-21T16:36:41.132Z,98160.19
2023-02-21T16:39:10.068Z,98156.28
2023-02-21T16:41:36.853Z,98090.28
2023-02-21T16:44:04.085Z,98129.16
2023-02-21T16:46:32.135Z,98106.22
2023-02-21T16:49:00.265Z,98134.19
2023-02-21T16:51:33.492Z,98137.78
2023-02-21T16:54:00.421Z,98157.44
2023-02-21T16:56:27.185Z,98135.59
2023-02-21T16:58:57.277Z,98162.69
2023-02-21T17:01:29.867Z,98151.78
2023-02-21T17:03:57.137Z,98139.38
2023-02-21T17:06:27.629Z,98157.38
2023-02-21T17:08:57.002Z,98147.75
2023-02-21T17:11:23.870Z,98163.53
2023-02-21T17:13:52.006Z,98147.75
2023-02-21T17:16:20.172Z,98161.41
2023-02-21T17:18:47.116Z,98158.38
2023-02-21T17:21:16.376Z,98107.38
2023-02-21T17:23:44.234Z,98157.53
2023-02-21T17:26:12.642Z,98166.25
2023-02-21T17:28:41.555Z,98160.66
2023-02-21T17:31:08.663Z,98126.53
2023-02-21T17:33:35.888Z,98163.84
2023-02-21T17:36:04.837Z,98118.50
2023-02-21T17:38:33.434Z,98137.75
2023-02-21T17:41:00.239Z,98106.06
2023-02-21T17:43:27.006Z,98131.44
2023-02-21T17:45:53.590Z,98145.22
2023-02-21T17:48:23.447Z,98127.38
2023-02-21T17:50:50.021Z,98130.06
2023-02-21T17:53:20.740Z,98160.31
2023-02-21T17:55:47.411Z,98159.19
2023-02-21T17:58:15.546Z,98170.38
2023-02-21T18:00:44.161Z,98109.84
2023-02-21T18:03:11.260Z,98120.34
2023-02-21T18:05:38.031Z,98089.78
2023-02-21T18:08:07.682Z,98172.41
2023-02-21T18:10:34.361Z,98106.53
2023-02-21T18:13:01.193Z,98131.94
2023-02-21T18:15:29.022Z,98166.81
2023-02-21T18:17:56.464Z,98178.41
2023-02-21T18:20:29.639Z,98156.00
2023-02-21T18:22:56.236Z,98178.97
2023-02-21T18:25:24.275Z,98163.84
2023-02-21T18:27:53.137Z,98156.59
2023-02-21T18:30:21.844Z,98172.97
2023-02-21T18:32:49.034Z,98161.75
2023-02-21T18:35:16.870Z,98176.28
2023-02-21T18:37:48.247Z,98182.72
2023-02-21T18:40:16.947Z,98163.69
2023-02-21T18:42:44.842Z,98160.88
2023-02-21T18:45:12.442Z,98138.91
2023-02-21T18:47:39.160Z,98181.78
2023-02-21T18:50:07.549Z,98183.84
2023-02-21T18:52:34.388Z,98171.19
2023-02-21T18:55:04.499Z,98117.44
2023-02-21T18:57:31.843Z,98172.03
2023-02-21T18:59:58.958Z,98178.41
2023-02-21T19:02:26.028Z,98151.75
2023-02-21T19:04:52.808Z,98127.31
2023-02-21T19:07:19.627Z,98148.91
2023-02-21T19:09:47.451Z,98158.28
2023-02-21T19:12:14.534Z,98096.91
2023-02-21T19:14:41.475Z,98072.03
2023-02-21T19:17:09.528Z,98157.50
2023-02-21T19:19:37.430Z,98177.31
2023-02-21T19:22:05.858Z,98180.38
2023-02-21T19:24:32.698Z,98177.50
2023-02-21T19:27:05.335Z,98176.28
2023-02-21T19:29:32.475Z,98171.78
2023-02-21T19:32:02.189Z,98139.16
2023-02-21T19:34:30.944Z,98178.38
2023-02-21T19:36:57.593Z,98088.63
2023-02-21T19:39:24.283Z,98148.38
2023-02-21T19:41:51.857Z,98174.06
2023-02-21T19:44:18.916Z,98140.81
2023-02-21T19:46:45.823Z,98178.38
2023-02-21T19:49:20.803Z,98163.84
2023-02-21T19:51:49.376Z,98178.75
2023-02-21T19:54:20.566Z,98175.31
2023-02-21T19:57:20.609Z,98143.25
2023-02-21T19:59:47.686Z,98144.31
2023-02-21T20:02:16.188Z,98126.13
2023-02-21T20:04:43.509Z,98147.53
2023-02-21T20:07:11.299Z,98125.28
2023-02-21T20:09:39.104Z,98179.78
2023-02-21T20:12:06.410Z,98142.03
2023-02-21T20:14:33.287Z,98142.81
2023-02-21T20:17:00.623Z,98171.59
2023-02-21T20:19:27.978Z,98166.69
2023-02-21T20:21:55.895Z,98188.91
2023-02-21T20:24:23.738Z,98190.97
2023-02-21T20:26:53.062Z,98192.19
2023-02-21T20:29:21.987Z,98197.47
2023-02-21T20:31:48.656Z,98162.94
2023-02-21T20:34:16.593Z,98193.38
2023-02-21T20:36:44.977Z,98168.78
2023-02-21T20:39:31.646Z,98185.16
2023-02-21T20:42:00.369Z,98184.31
2023-02-21T20:44:34.524Z,98191.25
2023-02-21T20:47:04.888Z,98174.09
2023-02-21T20:49:32.016Z,98197.31
2023-02-21T20:51:59.034Z,98199.50
2023-02-21T20:54:25.829Z,98183.78
2023-02-21T20:56:56.658Z,98107.19
2023-02-21T20:59:27.295Z,98192.38
2023-02-21T21:01:55.154Z,98155.75
2023-02-21T21:04:30.893Z,98133.88
2023-02-21T21:07:05.175Z,98149.94
2023-02-21T21:09:35.778Z,98186.47
2023-02-21T21:12:09.142Z,98120.97
2023-02-21T21:14:39.934Z,98191.69
2023-02-21T21:17:07.250Z,98185.38
2023-02-21T21:19:34.558Z,98178.84
2023-02-21T21:22:04.076Z,98187.41
2023-02-21T21:24:32.407Z,98190.25
2023-02-21T21:27:06.233Z,98187.97
2023-02-21T21:29:42.511Z,98184.06
2023-02-21T21:32:12.264Z,98184.00
2023-02-21T21:34:43.406Z,98164.94
2023-02-21T21:37:11.861Z,98173.50
2023-02-21T21:39:45.486Z,98143.63
2023-02-21T21:42:16.798Z,98073.06
2023-02-21T21:44:54.095Z,98159.59
2023-02-21T21:47:31.954Z,98164.47
2023-02-21T21:50:02.338Z,98174.03
2023-02-21T21:52:32.490Z,98175.28
2023-02-21T21:54:59.242Z,98160.00
2023-02-21T21:57:27.232Z,98141.59
2023-02-21T21:59:54.708Z,98171.78
2023-02-21T22:02:22.039Z,98069.44
2023-02-21T22:04:48.787Z,98160.81
2023-02-21T22:07:15.631Z,98162.03
2023-02-21T22:09:43.434Z,98117.81
2023-02-21T22:12:18.956Z,98131.34
2023-02-21T22:14:45.873Z,98112.44
2023-02-21T22:17:12.541Z,98147.25
2023-02-21T22:19:39.610Z,98140.09
2023-02-21T22:22:08.344Z,98133.38
2023-02-21T22:24:35.620Z,98131.19
2023-02-21T22:27:02.382Z,98145.56
2023-02-21T22:29:29.537Z,98137.47
2023-02-21T22:31:56.192Z,98104.75
2023-02-21T22:34:32.116Z,98119.84
2023-02-21T22:37:00.141Z,98138.97
2023-02-21T22:39:29.034Z,98047.19
2023-02-21T22:41:57.157Z,98119.09
2023-02-21T22:44:26.631Z,98109.94
2023-02-21T22:46:59.726Z,98130.47
2023-02-21T22:49:27.653Z,98123.00
2023-02-21T22:51:54.821Z,98116.84
2023-02-21T22:54:23.213Z,98094.16
2023-02-21T22:56:55.078Z,98120.94
2023-02-21T22:59:26.075Z,98117.53
2023-02-21T23:01:53.617Z,98086.84
2023-02-21T23:04:26.656Z,98111.56
2023-02-21T23:06:56.541Z,98077.69
2023-02-21T23:09:25.748Z,98100.56
2023-02-21T23:11:55.378Z,98090.94
2023-02-21T23:14:22.503Z,98104.75
2023-02-21T23:16:49.221Z,98098.84
2023-02-21T23:19:17.120Z,98098.59
2023-02-21T23:21:49.995Z,98108.59
2023-02-21T23:24:20.023Z,98063.78
2023-02-21T23:26:48.866Z,98087.41
2023-02-21T23:29:18.849Z,98092.31
2023-02-21T23:31:46.030Z,98092.56
2023-02-21T23:34:13.291Z,98084.44
2023-02-21T23:36:44.367Z,98085.63
2023-02-21T23:39:15.132Z,98085.06
2023-02-21T23:41:49.316Z,98084.56
2023-02-21T23:44:16.588Z,98067.38
2023-02-21T23:46:44.689Z,98055.31
2023-02-21T23:49:15.689Z,98047.03
2023-02-21T23:51:44.237Z,98081.56
2023-02-21T23:54:15.316Z,98047.91
2023-02-21T23:56:42.439Z,98074.47
2023-02-21T23:59:08.891Z,98027.03
